createdAt,value
2023-01-10T00:02:25.975Z,100.00
2023-01-10T00:06:29.368Z,100.00
2023-01-10T00:10:33.782Z,100.00
2023-01-10T00:14:37.097Z,100.00
2023-01-10T00:18:40.336Z,100.00
2023-01-10T00:22:44.526Z,100.00
2023-01-10T00:26:53.181Z,100.00
2023-01-10T00:31:01.327Z,100.00
2023-01-10T00:35:07.461Z,100.00
2023-01-10T00:39:11.428Z,100.00
2023-01-10T00:43:33.181Z,100.00
2023-01-10T00:47:36.342Z,100.00
2023-01-10T00:51:39.598Z,100.00
2023-01-10T00:55:42.896Z,100.00
2023-01-10T00:59:46.634Z,100.00
2023-01-10T01:03:49.900Z,100.00
2023-01-10T01:07:53.368Z,100.00
2023-01-10T01:11:57.143Z,99.93
2023-01-10T01:16:00.805Z,99.99
2023-01-10T01:20:04.516Z,100.00
2023-01-10T01:24:10.622Z,100.00
2023-01-10T01:28:13.930Z,100.00
2023-01-10T01:32:17.341Z,100.00
2023-01-10T01:36:20.803Z,99.91
2023-01-10T01:40:24.204Z,99.74
2023-01-10T01:44:33.592Z,99.60
2023-01-10T01:48:41.722Z,99.91
2023-01-10T01:52:45.703Z,99.91
2023-01-10T01:56:55.108Z,99.92
2023-01-10T02:00:58.882Z,99.95
2023-01-10T02:05:06.507Z,99.86
2023-01-10T02:09:25.959Z,99.27
2023-01-10T02:13:30.860Z,99.05
2023-01-10T02:17:34.080Z,99.07
2023-01-10T02:22:06.060Z,98.94
2023-01-10T02:26:38.568Z,99.17
2023-01-10T02:31:06.782Z,99.25
2023-01-10T02:35:18.494Z,99.31
2023-01-10T02:39:36.911Z,99.56
2023-01-10T02:43:48.213Z,99.58
2023-01-10T02:47:51.517Z,100.00
2023-01-10T02:51:55.641Z,99.95
2023-01-10T02:56:24.162Z,99.94
2023-01-10T03:00:33.060Z,100.00
2023-01-10T03:04:59.118Z,99.88
2023-01-10T03:09:08.647Z,99.84
2023-01-10T03:13:41.411Z,100.00
2023-01-10T03:17:49.591Z,100.00
2023-01-10T03:21:57.741Z,100.00
2023-01-10T03:26:03.108Z,100.00
2023-01-10T03:30:09.326Z,100.00
2023-01-10T03:34:13.424Z,100.00
2023-01-10T03:38:26.292Z,100.00
2023-01-10T03:43:06.871Z,100.00
2023-01-10T03:47:16.527Z,100.00
2023-01-10T03:51:20.810Z,100.00
2023-01-10T03:55:28.272Z,100.00
2023-01-10T03:59:31.803Z,100.00
2023-01-10T04:03:35.024Z,100.00
2023-01-10T04:07:38.399Z,100.00
2023-01-10T04:11:41.678Z,100.00
2023-01-10T04:15:44.931Z,100.00
2023-01-10T04:19:48.262Z,100.00
2023-01-10T04:23:51.649Z,100.00
2023-01-10T04:27:54.859Z,100.00
2023-01-10T04:31:58.454Z,100.00
2023-01-10T04:36:01.655Z,100.00
2023-01-10T04:40:05.423Z,100.00
2023-01-10T04:44:09.093Z,100.00
2023-01-10T04:48:12.460Z,100.00
2023-01-10T04:52:15.965Z,100.00
2023-01-10T04:56:22.731Z,100.00
2023-01-10T05:00:26.173Z,100.00
2023-01-10T05:04:29.689Z,100.00
2023-01-10T05:08:33.438Z,100.00
2023-01-10T05:12:36.672Z,100.00
2023-01-10T05:16:39.949Z,100.00
2023-01-10T05:20:43.212Z,100.00
2023-01-10T05:24:46.446Z,100.00
2023-01-10T05:28:49.897Z,100.00
2023-01-10T05:32:53.175Z,100.00
2023-01-10T05:36:56.523Z,100.00
2023-01-10T05:41:00.922Z,100.00
2023-01-10T05:45:05.308Z,100.00
2023-01-10T05:49:08.715Z,100.00
2023-01-10T05:53:12.005Z,100.00
2023-01-10T05:57:15.361Z,100.00
2023-01-10T06:01:18.795Z,100.00
2023-01-10T06:05:22.897Z,100.00
2023-01-10T06:09:26.182Z,100.00
2023-01-10T06:13:29.495Z,100.00
2023-01-10T06:17:32.892Z,100.00
2023-01-10T06:21:36.149Z,100.00
2023-01-10T06:25:41.844Z,100.00
2023-01-10T06:29:45.185Z,100.00
2023-01-10T06:33:51.088Z,100.00
2023-01-10T06:37:54.389Z,100.00
2023-01-10T06:41:57.661Z,100.00
2023-01-10T06:46:00.893Z,100.00
2023-01-10T06:50:05.173Z,100.00
2023-01-10T06:54:08.514Z,100.00
2023-01-10T06:58:12.158Z,100.00
2023-01-10T07:02:15.527Z,100.00
2023-01-10T07:06:19.065Z,100.00
2023-01-10T07:10:22.963Z,100.00
2023-01-10T07:14:26.602Z,100.00
2023-01-10T07:18:29.898Z,100.00
2023-01-10T07:22:47.726Z,100.00
2023-01-10T07:26:51.112Z,100.00
2023-01-10T07:30:55.832Z,100.00
2023-01-10T07:34:59.121Z,100.00
2023-01-10T07:39:02.792Z,100.00
2023-01-10T07:43:06.100Z,100.00
2023-01-10T07:47:09.283Z,100.00
2023-01-10T07:51:12.552Z,100.00
2023-01-10T07:55:16.020Z,100.00
2023-01-10T07:59:19.333Z,100.00
2023-01-10T08:03:25.956Z,100.00
2023-01-10T08:07:30.612Z,100.00
2023-01-10T08:11:36.005Z,100.00
2023-01-10T08:15:39.236Z,100.00
2023-01-10T08:19:42.482Z,100.00
2023-01-10T08:23:45.707Z,100.00
2023-01-10T08:27:49.004Z,100.00
2023-01-10T08:31:52.232Z,100.00
2023-01-10T08:35:55.489Z,100.00
2023-01-10T08:39:58.776Z,100.00
2023-01-10T08:44:02.039Z,100.00
2023-01-10T08:48:07.020Z,100.00
2023-01-10T08:52:10.265Z,100.00
2023-01-10T08:56:13.485Z,100.00
2023-01-10T09:00:17.245Z,100.00
2023-01-10T09:04:21.102Z,100.00
2023-01-10T09:08:24.324Z,100.00
2023-01-10T09:12:46.176Z,100.00
2023-01-10T09:16:51.951Z,100.00
2023-01-10T09:20:55.315Z,100.00
2023-01-10T09:24:58.706Z,100.00
2023-01-10T09:29:02.005Z,100.00
2023-01-10T09:33:05.932Z,100.00
2023-01-10T09:37:09.180Z,100.00
2023-01-10T09:41:15.543Z,100.00
2023-01-10T09:45:36.929Z,100.00
2023-01-10T09:49:49.300Z,100.00
2023-01-10T09:54:10.708Z,100.00
2023-01-10T09:58:18.210Z,100.00
2023-01-10T10:02:45.860Z,100.00
2023-01-10T10:06:53.551Z,100.00
2023-01-10T10:11:27.736Z,100.00
2023-01-10T10:15:45.823Z,100.00
2023-01-10T10:20:07.618Z,100.00
2023-01-10T10:24:42.157Z,100.00
2023-01-10T10:29:19.355Z,100.00
2023-01-10T10:33:32.965Z,100.00
2023-01-10T10:37:43.365Z,100.00
2023-01-10T10:41:52.801Z,100.00
2023-01-10T10:46:01.905Z,100.00
2023-01-10T10:50:14.522Z,100.00
2023-01-10T10:54:18.453Z,100.00
2023-01-10T10:58:22.028Z,100.00
2023-01-10T11:02:32.244Z,100.00
2023-01-10T11:06:38.791Z,100.00
2023-01-10T11:10:46.464Z,100.00
2023-01-10T11:14:51.941Z,100.00
2023-01-10T11:19:23.141Z,100.00
2023-01-10T11:23:31.322Z,100.00
2023-01-10T11:27:56.966Z,100.00
2023-01-10T11:32:10.506Z,100.00
2023-01-10T11:36:13.999Z,100.00
2023-01-10T11:40:27.750Z,100.00
2023-01-10T11:44:31.106Z,100.00
2023-01-10T11:53:29.432Z,100.00
2023-01-10T11:57:33.602Z,100.00
2023-01-10T12:01:48.011Z,100.00
2023-01-10T12:06:02.543Z,100.00
2023-01-10T12:10:06.703Z,100.00
2023-01-10T12:14:20.123Z,100.00
2023-01-10T12:18:24.678Z,100.00
2023-01-10T12:22:39.456Z,100.00
2023-01-10T12:26:43.951Z,100.00
2023-01-10T12:30:51.223Z,100.00
2023-01-10T12:35:03.530Z,100.00
2023-01-10T12:39:16.825Z,100.00
2023-01-10T12:43:54.332Z,100.00
2023-01-10T12:48:05.904Z,100.00
2023-01-10T12:52:24.774Z,100.00
2023-01-10T12:56:29.223Z,100.00
2023-01-10T13:00:49.064Z,100.00
2023-01-10T13:05:00.668Z,100.00
2023-01-10T13:09:28.636Z,100.00
2023-01-10T13:13:36.439Z,100.00
2023-01-10T13:17:47.510Z,100.00
2023-01-10T13:21:52.628Z,100.00
2023-01-10T13:26:03.123Z,100.00
2023-01-10T13:30:24.158Z,100.00
2023-01-10T13:34:34.521Z,100.00
2023-01-10T13:38:43.835Z,100.00
2023-01-10T13:43:19.093Z,100.00
2023-01-10T13:47:40.766Z,100.00
2023-01-10T13:52:22.874Z,100.00
2023-01-10T13:56:42.789Z,100.00
2023-01-10T14:01:12.235Z,100.00
2023-01-10T14:05:19.312Z,100.00
2023-01-10T14:09:22.675Z,100.00
2023-01-10T14:13:26.013Z,100.00
2023-01-10T14:17:39.681Z,100.00
2023-01-10T14:21:45.715Z,100.00
2023-01-10T14:25:57.907Z,100.00
2023-01-10T14:30:02.701Z,100.00
2023-01-10T14:34:12.035Z,100.00
2023-01-10T14:38:30.930Z,100.00
2023-01-10T14:42:35.756Z,100.00
2023-01-10T14:46:45.311Z,100.00
2023-01-10T14:50:48.575Z,100.00
2023-01-10T14:55:04.650Z,100.00
2023-01-10T14:59:31.107Z,100.00
2023-01-10T15:03:34.386Z,100.00
2023-01-10T15:07:38.572Z,100.00
2023-01-10T15:11:42.080Z,100.00
2023-01-10T15:15:48.022Z,100.00
2023-01-10T15:19:53.076Z,100.00
2023-01-10T15:23:56.282Z,100.00
2023-01-10T15:28:00.183Z,100.00
2023-01-10T15:32:10.856Z,100.00
2023-01-10T15:36:20.419Z,100.00
2023-01-10T15:40:30.240Z,100.00
2023-01-10T15:44:45.327Z,100.00
2023-01-10T15:49:03.005Z,100.00
2023-01-10T15:53:11.554Z,100.00
2023-01-10T15:57:23.144Z,100.00
2023-01-10T16:01:29.099Z,100.00
2023-01-10T16:05:32.675Z,100.00
2023-01-10T16:09:36.607Z,100.00
2023-01-10T16:13:39.990Z,100.00
2023-01-10T16:17:43.397Z,100.00
2023-01-10T16:21:58.301Z,100.00
2023-01-10T16:26:05.331Z,100.00
2023-01-10T16:30:23.456Z,100.00
2023-01-10T16:34:26.756Z,100.00
2023-01-10T16:38:30.495Z,100.00
2023-01-10T16:42:52.359Z,100.00
2023-01-10T16:46:57.096Z,100.00
2023-01-10T16:51:28.791Z,100.00
2023-01-10T16:55:48.953Z,100.00
2023-01-10T16:59:52.216Z,100.00
2023-01-10T17:03:56.431Z,100.00
2023-01-10T17:08:00.338Z,100.00
2023-01-10T17:12:16.836Z,100.00
2023-01-10T17:16:23.735Z,100.00
2023-01-10T17:20:28.337Z,100.00
2023-01-10T17:24:31.595Z,100.00
2023-01-10T17:28:34.857Z,100.00
2023-01-10T17:32:38.729Z,100.00
2023-01-10T17:36:42.960Z,100.00
2023-01-10T17:40:48.019Z,100.00
2023-01-10T17:44:51.353Z,100.00
2023-01-10T17:48:54.915Z,100.00
2023-01-10T17:52:58.305Z,100.00
2023-01-10T17:57:02.532Z,100.00
2023-01-10T18:01:06.193Z,100.00
2023-01-10T18:05:09.641Z,100.00
2023-01-10T18:09:13.119Z,100.00
2023-01-10T18:13:18.613Z,100.00
2023-01-10T18:17:21.855Z,100.00
2023-01-10T18:21:26.400Z,100.00
2023-01-10T18:25:30.260Z,100.00
2023-01-10T18:29:33.660Z,100.00
2023-01-10T18:33:37.132Z,100.00
2023-01-10T18:37:40.478Z,100.00
2023-01-10T18:41:43.701Z,100.00
2023-01-10T18:45:48.231Z,100.00
2023-01-10T18:49:51.547Z,100.00
2023-01-10T18:53:54.921Z,100.00
2023-01-10T18:57:58.420Z,100.00
2023-01-10T19:02:02.543Z,100.00
2023-01-10T19:06:11.407Z,100.00
2023-01-10T19:10:15.025Z,100.00
2023-01-10T19:14:19.877Z,100.00
2023-01-10T19:18:24.845Z,100.00
2023-01-10T19:22:29.278Z,100.00
2023-01-10T19:26:33.287Z,100.00
2023-01-10T19:30:37.013Z,100.00
2023-01-10T19:34:40.807Z,100.00
2023-01-10T19:38:44.825Z,100.00
2023-01-10T19:42:48.441Z,100.00
2023-01-10T19:46:52.073Z,100.00
2023-01-10T19:50:56.101Z,100.00
2023-01-10T19:54:59.996Z,100.00
2023-01-10T19:59:04.137Z,100.00
2023-01-10T20:03:08.085Z,100.00
2023-01-10T20:07:11.412Z,100.00
2023-01-10T20:11:15.971Z,100.00
2023-01-10T20:15:19.327Z,100.00
2023-01-10T20:19:23.936Z,100.00
2023-01-10T20:23:27.166Z,100.00
2023-01-10T20:27:30.476Z,100.00
2023-01-10T20:31:34.176Z,100.00
2023-01-10T20:35:40.419Z,100.00
2023-01-10T20:39:43.648Z,100.00
2023-01-10T20:43:47.228Z,100.00
2023-01-10T20:47:53.551Z,100.00
2023-01-10T20:51:56.838Z,100.00
2023-01-10T20:56:08.891Z,100.00
2023-01-10T21:00:12.814Z,100.00
2023-01-10T21:04:16.109Z,100.00
2023-01-10T21:08:21.121Z,100.00
2023-01-10T21:12:27.529Z,100.00
2023-01-10T21:16:31.068Z,100.00
2023-01-10T21:20:34.668Z,100.00
2023-01-10T21:24:37.931Z,100.00
2023-01-10T21:28:43.826Z,100.00
2023-01-10T21:32:47.101Z,100.00
2023-01-10T21:36:51.493Z,100.00
2023-01-10T21:40:56.502Z,100.00
2023-01-10T21:45:00.518Z,100.00
2023-01-10T21:49:04.856Z,100.00
2023-01-10T21:53:08.640Z,100.00
2023-01-10T21:57:12.222Z,100.00
2023-01-10T22:01:16.021Z,100.00
2023-01-10T22:05:20.886Z,100.00
2023-01-10T22:09:25.430Z,100.00
2023-01-10T22:13:28.674Z,100.00
2023-01-10T22:17:31.926Z,100.00
2023-01-10T22:21:35.118Z,100.00
2023-01-10T22:25:38.344Z,100.00
2023-01-10T22:29:41.823Z,100.00
2023-01-10T22:33:45.131Z,100.00
2023-01-10T22:37:48.492Z,100.00
2023-01-10T22:41:54.111Z,100.00
2023-01-10T22:45:57.430Z,100.00
2023-01-10T22:50:00.801Z,100.00
2023-01-10T22:54:04.688Z,100.00
2023-01-10T22:58:08.101Z,100.00
2023-01-10T23:02:11.340Z,100.00
2023-01-10T23:06:15.675Z,100.00
2023-01-10T23:10:29.646Z,100.00
2023-01-10T23:14:33.953Z,100.00
2023-01-10T23:18:37.445Z,100.00
2023-01-10T23:22:40.725Z,100.00
2023-01-10T23:26:43.981Z,100.00
2023-01-10T23:30:47.278Z,100.00
2023-01-10T23:34:50.499Z,100.00
2023-01-10T23:38:53.933Z,100.00
2023-01-10T23:42:59.784Z,100.00
2023-01-10T23:47:03.162Z,100.00
2023-01-10T23:51:11.566Z,100.00
2023-01-10T23:55:15.003Z,100.00
2023-01-10T23:59:18.343Z,100.00
